createdAt,value
2018-09-01T00:00:42.022Z,102368.00
2018-09-01T00:03:11.322Z,102363.00
2018-09-01T00:05:40.848Z,102357.00
2018-09-01T00:08:10.214Z,102361.00
2018-09-01T00:10:39.531Z,102366.00
2018-09-01T00:13:08.910Z,102373.00
2018-09-01T00:15:38.889Z,102373.00
2018-09-01T00:18:09.025Z,102379.00
2018-09-01T00:20:39.075Z,102379.00
2018-09-01T00:23:08.863Z,102379.00
2018-09-01T00:25:38.869Z,102377.00
2018-09-01T00:28:08.901Z,102376.00
2018-09-01T00:30:38.926Z,102372.00
2018-09-01T00:33:08.838Z,102373.00
2018-09-01T00:35:39.038Z,102371.00
2018-09-01T00:38:14.039Z,102369.00
2018-09-01T00:40:43.385Z,102372.00
2018-09-01T00:43:12.666Z,102371.00
2018-09-01T00:45:42.001Z,102375.00
2018-09-01T00:48:11.337Z,102376.00
2018-09-01T00:50:40.700Z,102371.00
2018-09-01T00:53:09.981Z,102369.00
2018-09-01T00:55:39.326Z,102378.00
2018-09-01T00:58:08.963Z,102378.00
2018-09-01T01:00:38.900Z,102377.00
2018-09-01T01:03:08.891Z,102385.00
2018-09-01T01:05:39.111Z,102380.00
2018-09-01T01:08:08.950Z,102381.00
2018-09-01T01:10:38.859Z,102381.00
2018-09-01T01:13:15.588Z,102380.00
2018-09-01T01:15:44.922Z,102381.00
2018-09-01T01:18:14.205Z,102380.00
2018-09-01T01:20:43.549Z,102383.00
2018-09-01T01:23:12.819Z,102382.00
2018-09-01T01:25:42.129Z,102384.00
2018-09-01T01:28:11.446Z,102383.00
2018-09-01T01:30:40.775Z,102379.00
2018-09-01T01:33:10.151Z,102383.00
2018-09-01T01:35:39.436Z,102382.00
2018-09-01T01:38:09.006Z,102387.00
2018-09-01T01:40:38.981Z,102386.00
2018-09-01T01:43:09.016Z,102397.00
2018-09-01T01:45:39.006Z,102391.00
2018-09-01T01:48:09.110Z,102393.00
2018-09-01T01:51:16.112Z,102391.00
2018-09-01T01:53:45.466Z,102392.00
2018-09-01T01:56:14.876Z,102386.00
2018-09-01T01:58:45.103Z,102385.00
2018-09-01T02:01:14.586Z,102385.00
2018-09-01T02:03:43.946Z,102383.00
2018-09-01T02:06:13.245Z,102384.00
2018-09-01T02:08:42.607Z,102390.00
2018-09-01T02:11:11.928Z,102392.00
2018-09-01T02:13:41.241Z,102393.00
2018-09-01T02:16:10.561Z,102397.00
2018-09-01T02:18:39.883Z,102397.00
2018-09-01T02:21:09.191Z,102398.00
2018-09-01T02:23:39.291Z,102389.00
2018-09-01T02:26:09.111Z,102403.00
2018-09-01T02:28:39.080Z,102404.00
2018-09-01T02:31:09.254Z,102406.00
2018-09-01T02:33:39.198Z,102409.00
2018-09-01T02:36:09.143Z,102408.00
2018-09-01T02:38:39.067Z,102405.00
2018-09-01T02:41:09.207Z,102411.00
2018-09-01T02:43:39.324Z,102408.00
2018-09-01T02:46:09.208Z,102407.00
2018-09-01T02:48:39.150Z,102417.00
2018-09-01T02:51:09.238Z,102418.00
2018-09-01T02:53:39.137Z,102415.00
2018-09-01T02:56:09.345Z,102417.00
2018-09-01T02:58:39.190Z,102420.00
2018-09-01T03:01:14.661Z,102423.00
2018-09-01T03:03:44.133Z,102429.00
2018-09-01T03:06:13.443Z,102428.00
2018-09-01T03:08:42.720Z,102425.00
2018-09-01T03:11:12.145Z,102426.00
2018-09-01T03:13:41.498Z,102423.00
2018-09-01T03:16:10.849Z,102428.00
2018-09-01T03:18:40.240Z,102430.00
2018-09-01T03:21:09.643Z,102428.00
2018-09-01T03:23:42.192Z,102431.00
2018-09-01T03:26:11.550Z,102433.00
2018-09-01T03:28:40.912Z,102432.00
2018-09-01T03:31:10.237Z,102431.00
2018-09-01T03:33:39.551Z,102439.00
2018-09-01T03:36:09.236Z,102434.00
2018-09-01T03:38:39.245Z,102426.00
2018-09-01T03:41:09.269Z,102427.00
2018-09-01T03:43:39.244Z,102425.00
2018-09-01T03:46:09.307Z,102421.00
2018-09-01T03:48:39.670Z,102422.00
2018-09-01T03:51:09.338Z,102420.00
2018-09-01T03:53:39.423Z,102434.00
2018-09-01T03:56:09.290Z,102429.00
2018-09-01T03:58:39.385Z,102431.00
2018-09-01T04:01:09.600Z,102431.00
2018-09-01T04:03:39.326Z,102434.00
2018-09-01T04:06:09.317Z,102434.00
2018-09-01T04:08:39.453Z,102436.00
2018-09-01T04:11:09.355Z,102431.00
2018-09-01T04:13:39.376Z,102431.00
2018-09-01T04:16:09.458Z,102439.00
2018-09-01T04:18:39.295Z,102435.00
2018-09-01T04:21:09.453Z,102438.00
2018-09-01T04:23:39.337Z,102441.00
2018-09-01T04:26:09.385Z,102439.00
2018-09-01T04:28:39.362Z,102438.00
2018-09-01T04:31:09.455Z,102440.00
2018-09-01T04:33:39.353Z,102440.00
2018-09-01T04:36:09.464Z,102436.00
2018-09-01T04:38:39.378Z,102438.00
2018-09-01T04:41:09.421Z,102442.00
2018-09-01T04:43:39.492Z,102438.00
2018-09-01T04:46:09.482Z,102430.00
2018-09-01T04:48:39.392Z,102441.00
2018-09-01T04:51:09.494Z,102441.00
2018-09-01T04:53:39.461Z,102443.00
2018-09-01T04:56:09.378Z,102442.00
2018-09-01T04:58:39.421Z,102440.00
2018-09-01T05:01:09.585Z,102442.00
2018-09-01T05:03:39.423Z,102446.00
2018-09-01T05:06:09.469Z,102452.00
2018-09-01T05:08:39.456Z,102454.00
2018-09-01T05:11:09.583Z,102456.00
2018-09-01T05:13:39.470Z,102458.00
2018-09-01T05:16:09.494Z,102459.00
2018-09-01T05:18:39.538Z,102456.00
2018-09-01T05:21:09.425Z,102464.00
2018-09-01T05:23:39.452Z,102468.00
2018-09-01T05:26:09.626Z,102464.00
2018-09-01T05:28:39.509Z,102469.00
2018-09-01T05:31:09.694Z,102464.00
2018-09-01T05:33:39.560Z,102468.00
2018-09-01T05:36:09.575Z,102481.00
2018-09-01T05:38:39.694Z,102476.00
2018-09-01T05:41:09.577Z,102473.00
2018-09-01T05:43:39.527Z,102484.00
2018-09-01T05:46:09.542Z,102484.00
2018-09-01T05:48:39.520Z,102489.00
2018-09-01T05:51:09.747Z,102485.00
2018-09-01T05:53:39.555Z,102491.00
2018-09-01T05:56:09.617Z,102493.00
2018-09-01T05:58:39.570Z,102499.00
2018-09-01T06:01:09.714Z,102496.00
2018-09-01T06:03:39.657Z,102501.00
2018-09-01T06:06:09.755Z,102505.00
2018-09-01T06:08:39.810Z,102507.00
2018-09-01T06:11:09.642Z,102507.00
2018-09-01T06:13:39.556Z,102510.00
2018-09-01T06:16:09.613Z,102514.00
2018-09-01T06:18:39.594Z,102521.00
2018-09-01T06:21:09.642Z,102520.00
2018-09-01T06:23:39.649Z,102521.00
2018-09-01T06:26:09.624Z,102517.00
2018-09-01T06:28:42.782Z,102527.00
2018-09-01T06:31:12.105Z,102531.00
2018-09-01T06:33:41.419Z,102532.00
2018-09-01T06:36:10.704Z,102541.00
2018-09-01T06:38:40.059Z,102541.00
2018-09-01T06:41:09.690Z,102544.00
2018-09-01T06:43:39.793Z,102545.00
2018-09-01T06:46:09.750Z,102553.00
2018-09-01T06:48:39.876Z,102558.00
2018-09-01T06:51:09.846Z,102561.00
2018-09-01T06:53:39.912Z,102565.00
2018-09-01T06:56:09.815Z,102562.00
2018-09-01T06:58:39.807Z,102572.00
2018-09-01T07:01:09.952Z,102571.00
2018-09-01T07:03:39.798Z,102573.00
2018-09-01T07:06:09.904Z,102581.00
2018-09-01T07:08:39.871Z,102585.00
2018-09-01T07:11:09.882Z,102588.00
2018-09-01T07:13:40.128Z,102593.00
2018-09-01T07:16:09.898Z,102592.00
2018-09-01T07:18:39.868Z,102600.00
2018-09-01T07:21:09.843Z,102603.00
2018-09-01T07:23:39.919Z,102604.00
2018-09-01T07:26:10.043Z,102608.00
2018-09-01T07:28:40.055Z,102609.00
2018-09-01T07:31:10.120Z,102614.00
2018-09-01T07:33:39.935Z,102610.00
2018-09-01T07:36:09.938Z,102618.00
2018-09-01T07:38:39.921Z,102620.00
2018-09-01T07:41:09.877Z,102630.00
2018-09-01T07:43:40.208Z,102635.00
2018-09-01T07:46:09.905Z,102635.00
2018-09-01T07:48:39.982Z,102631.00
2018-09-01T07:51:10.094Z,102637.00
2018-09-01T07:53:40.095Z,102637.00
2018-09-01T07:56:10.271Z,102636.00
2018-09-01T07:58:40.079Z,102638.00
2018-09-01T08:01:10.103Z,102647.00
2018-09-01T08:03:39.923Z,102648.00
2018-09-01T08:06:10.286Z,102640.00
2018-09-01T08:08:39.950Z,102648.00
2018-09-01T08:11:10.055Z,102645.00
2018-09-01T08:13:39.982Z,102651.00
2018-09-01T08:16:10.068Z,102653.00
2018-09-01T08:18:40.121Z,102653.00
2018-09-01T08:21:10.167Z,102659.00
2018-09-01T08:23:40.135Z,102660.00
2018-09-01T08:26:10.089Z,102663.00
2018-09-01T08:28:41.849Z,102663.00
2018-09-01T08:31:11.257Z,102663.00
2018-09-01T08:33:40.693Z,102662.00
2018-09-01T08:36:10.172Z,102662.00
2018-09-01T08:38:40.274Z,102665.00
2018-09-01T08:41:10.041Z,102669.00
2018-09-01T08:43:40.142Z,102671.00
2018-09-01T08:46:10.173Z,102675.00
2018-09-01T08:48:40.078Z,102676.00
2018-09-01T08:51:10.137Z,102679.00
2018-09-01T08:53:40.151Z,102675.00
2018-09-01T08:56:10.173Z,102676.00
2018-09-01T08:58:40.421Z,102677.00
2018-09-01T09:01:10.118Z,102677.00
2018-09-01T09:03:40.135Z,102676.00
2018-09-01T09:06:10.159Z,102678.00
2018-09-01T09:08:40.195Z,102678.00
2018-09-01T09:11:10.045Z,102676.00
2018-09-01T09:13:40.119Z,102670.00
2018-09-01T09:16:10.114Z,102675.00
2018-09-01T09:18:40.233Z,102675.00
2018-09-01T09:21:10.231Z,102686.00
2018-09-01T09:23:40.228Z,102687.00
2018-09-01T09:26:10.346Z,102690.00
2018-09-01T09:28:40.196Z,102700.00
2018-09-01T09:31:10.216Z,102705.00
2018-09-01T09:33:40.173Z,102704.00
2018-09-01T09:36:10.134Z,102705.00
2018-09-01T09:38:40.322Z,102717.00
2018-09-01T09:41:10.253Z,102705.00
2018-09-01T09:43:40.305Z,102706.00
2018-09-01T09:46:10.340Z,102698.00
2018-09-01T09:48:40.278Z,102700.00
2018-09-01T09:51:10.199Z,102694.00
2018-09-01T09:53:40.403Z,102695.00
2018-09-01T09:56:10.262Z,102694.00
2018-09-01T09:58:40.210Z,102688.00
2018-09-01T10:01:15.577Z,102688.00
2018-09-01T10:03:44.930Z,102684.00
2018-09-01T10:06:14.364Z,102687.00
2018-09-01T10:08:43.819Z,102680.00
2018-09-01T10:11:13.467Z,102676.00
2018-09-01T10:13:42.811Z,102693.00
2018-09-01T10:16:12.285Z,102687.00
2018-09-01T10:18:41.598Z,102687.00
2018-09-01T10:21:10.936Z,102686.00
2018-09-01T10:23:40.289Z,102686.00
2018-09-01T10:26:10.261Z,102688.00
2018-09-01T10:28:40.369Z,102696.00
2018-09-01T10:31:10.456Z,102696.00
2018-09-01T10:33:40.446Z,102693.00
2018-09-01T10:36:10.704Z,102688.00
2018-09-01T10:38:40.315Z,102686.00
2018-09-01T10:41:10.376Z,102678.00
2018-09-01T10:43:47.245Z,102667.00
2018-09-01T10:46:16.658Z,102664.00
2018-09-01T10:48:46.462Z,102666.00
2018-09-01T10:51:16.222Z,102667.00
2018-09-01T10:53:46.136Z,102668.00
2018-09-01T10:56:15.451Z,102671.00
2018-09-01T10:58:44.975Z,102667.00
2018-09-01T11:01:14.265Z,102669.00
2018-09-01T11:03:43.578Z,102660.00
2018-09-01T11:06:13.151Z,102657.00
2018-09-01T11:08:42.606Z,102652.00
2018-09-01T11:11:11.954Z,102650.00
2018-09-01T11:13:41.443Z,102649.00
2018-09-01T11:16:10.757Z,102654.00
2018-09-01T11:18:40.424Z,102653.00
2018-09-01T11:21:10.779Z,102655.00
2018-09-01T11:23:40.547Z,102648.00
2018-09-01T11:26:10.439Z,102658.00
2018-09-01T11:28:40.537Z,102648.00
2018-09-01T11:31:10.480Z,102658.00
2018-09-01T11:33:40.542Z,102658.00
2018-09-01T11:36:10.564Z,102655.00
2018-09-01T11:38:40.415Z,102653.00
2018-09-01T11:41:10.424Z,102658.00
2018-09-01T11:43:40.626Z,102660.00
2018-09-01T11:46:10.430Z,102660.00
2018-09-01T11:48:40.569Z,102659.00
2018-09-01T11:51:10.567Z,102661.00
2018-09-01T11:53:40.592Z,102656.00
2018-09-01T11:58:50.685Z,102652.00
2018-09-01T12:01:20.072Z,102662.00
2018-09-01T12:03:49.366Z,102662.00
2018-09-01T12:06:18.684Z,102658.00
2018-09-01T12:08:48.098Z,102661.00
2018-09-01T12:11:17.303Z,102652.00
2018-09-01T12:13:46.592Z,102662.00
2018-09-01T12:16:15.961Z,102661.00
2018-09-01T12:18:45.260Z,102659.00
2018-09-01T12:21:14.537Z,102656.00
2018-09-01T12:23:43.885Z,102662.00
2018-09-01T12:26:13.248Z,102664.00
2018-09-01T12:28:42.550Z,102661.00
2018-09-01T12:31:11.874Z,102664.00
2018-09-01T12:33:41.173Z,102659.00
2018-09-01T12:36:10.675Z,102665.00
2018-09-01T12:38:40.587Z,102662.00
2018-09-01T12:41:10.677Z,102665.00
2018-09-01T12:43:40.687Z,102662.00
2018-09-01T12:46:10.657Z,102658.00
2018-09-01T12:48:40.677Z,102660.00
2018-09-01T12:51:10.667Z,102652.00
2018-09-01T12:53:40.615Z,102651.00
2018-09-01T12:56:10.654Z,102653.00
2018-09-01T12:58:40.635Z,102653.00
2018-09-01T13:01:10.774Z,102650.00
2018-09-01T13:03:40.689Z,102647.00
2018-09-01T13:06:11.555Z,102649.00
2018-09-01T13:08:41.342Z,102645.00
2018-09-01T13:11:10.793Z,102645.00
2018-09-01T13:13:40.670Z,102644.00
2018-09-01T13:16:10.769Z,102649.00
2018-09-01T13:18:47.468Z,102637.00
2018-09-01T13:21:16.808Z,102642.00
2018-09-01T13:23:46.119Z,102649.00
2018-09-01T13:26:15.627Z,102643.00
2018-09-01T13:28:44.894Z,102645.00
2018-09-01T13:31:14.197Z,102649.00
2018-09-01T13:33:43.511Z,102656.00
2018-09-01T13:36:12.843Z,102653.00
2018-09-01T13:38:42.213Z,102644.00
2018-09-01T13:41:11.524Z,102646.00
2018-09-01T13:43:40.896Z,102652.00
2018-09-01T13:46:10.969Z,102651.00
2018-09-01T13:48:40.874Z,102655.00
2018-09-01T13:51:10.855Z,102660.00
2018-09-01T13:53:40.904Z,102666.00
2018-09-01T13:56:10.825Z,102665.00
2018-09-01T13:58:40.736Z,102664.00
2018-09-01T14:01:10.855Z,102664.00
2018-09-01T14:03:40.917Z,102667.00
2018-09-01T14:06:10.922Z,102664.00
2018-09-01T14:08:40.818Z,102662.00
2018-09-01T14:11:10.824Z,102660.00
2018-09-01T14:13:40.797Z,102658.00
2018-09-01T14:16:10.891Z,102663.00
2018-09-01T14:18:40.870Z,102670.00
2018-09-01T14:21:10.930Z,102664.00
2018-09-01T14:23:40.959Z,102670.00
2018-09-01T14:26:10.892Z,102670.00
2018-09-01T14:28:40.926Z,102666.00
2018-09-01T14:31:11.021Z,102670.00
2018-09-01T14:33:40.786Z,102672.00
2018-09-01T14:36:10.945Z,102669.00
2018-09-01T14:38:41.027Z,102663.00
2018-09-01T14:41:10.820Z,102662.00
2018-09-01T14:43:40.964Z,102657.00
2018-09-01T14:46:10.905Z,102657.00
2018-09-01T14:48:40.899Z,102656.00
2018-09-01T14:51:11.074Z,102659.00
2018-09-01T14:53:40.850Z,102660.00
2018-09-01T14:56:10.983Z,102659.00
2018-09-01T14:58:41.123Z,102660.00
2018-09-01T15:01:10.943Z,102656.00
2018-09-01T15:03:40.905Z,102657.00
2018-09-01T15:06:11.143Z,102660.00
2018-09-01T15:08:40.893Z,102658.00
2018-09-01T15:11:11.036Z,102661.00
2018-09-01T15:13:41.087Z,102663.00
2018-09-01T15:16:10.423Z,102666.00
2018-09-01T15:18:40.873Z,102666.00
2018-09-01T15:21:10.999Z,102670.00
2018-09-01T15:23:40.954Z,102678.00
2018-09-01T15:26:10.993Z,102678.00
2018-09-01T15:28:40.959Z,102676.00
2018-09-01T15:31:10.919Z,102677.00
2018-09-01T15:33:41.017Z,102676.00
2018-09-01T15:36:10.887Z,102676.00
2018-09-01T15:38:40.982Z,102678.00
2018-09-01T15:41:11.047Z,102678.00
2018-09-01T15:43:41.064Z,102690.00
2018-09-01T15:46:10.998Z,102682.00
2018-09-01T15:48:40.956Z,102685.00
2018-09-01T15:51:11.028Z,102692.00
2018-09-01T15:53:41.017Z,102692.00
2018-09-01T15:56:10.991Z,102692.00
2018-09-01T15:58:41.118Z,102700.00
2018-09-01T16:01:11.027Z,102701.00
2018-09-01T16:03:41.033Z,102700.00
2018-09-01T16:06:11.015Z,102710.00
2018-09-01T16:08:41.073Z,102713.00
2018-09-01T16:11:11.071Z,102710.00
2018-09-01T16:13:41.044Z,102710.00
2018-09-01T16:16:10.991Z,102711.00
2018-09-01T16:18:41.083Z,102707.00
2018-09-01T16:21:11.218Z,102710.00
2018-09-01T16:23:41.041Z,102712.00
2018-09-01T16:26:11.107Z,102710.00
2018-09-01T16:28:41.190Z,102705.00
2018-09-01T16:31:11.225Z,102707.00
2018-09-01T16:33:41.161Z,102704.00
2018-09-01T16:36:11.151Z,102709.00
2018-09-01T16:38:41.125Z,102713.00
2018-09-01T16:41:11.165Z,102712.00
2018-09-01T16:43:41.046Z,102715.00
2018-09-01T16:46:11.177Z,102712.00
2018-09-01T16:48:41.226Z,102717.00
2018-09-01T16:51:11.281Z,102711.00
2018-09-01T16:53:41.244Z,102714.00
2018-09-01T16:56:11.199Z,102709.00
2018-09-01T16:58:41.239Z,102710.00
2018-09-01T17:01:11.317Z,102716.00
2018-09-01T17:03:41.291Z,102725.00
2018-09-01T17:06:11.193Z,102732.00
2018-09-01T17:08:41.159Z,102728.00
2018-09-01T17:11:11.097Z,102729.00
2018-09-01T17:13:41.670Z,102733.00
2018-09-01T17:16:11.234Z,102738.00
2018-09-01T17:18:41.317Z,102744.00
2018-09-01T17:21:11.227Z,102744.00
2018-09-01T17:23:41.198Z,102743.00
2018-09-01T17:26:11.271Z,102747.00
2018-09-01T17:28:41.177Z,102747.00
2018-09-01T17:31:11.226Z,102744.00
2018-09-01T17:33:41.325Z,102745.00
2018-09-01T17:36:11.265Z,102752.00
2018-09-01T17:38:41.266Z,102741.00
2018-09-01T17:41:11.289Z,102749.00
2018-09-01T17:43:41.221Z,102754.00
2018-09-01T17:46:11.287Z,102753.00
2018-09-01T17:48:41.310Z,102755.00
2018-09-01T17:51:11.341Z,102757.00
2018-09-01T17:53:41.284Z,102753.00
2018-09-01T17:56:11.360Z,102764.00
2018-09-01T17:58:41.318Z,102765.00
2018-09-01T18:01:11.405Z,102764.00
2018-09-01T18:03:41.221Z,102766.00
2018-09-01T18:06:11.397Z,102765.00
2018-09-01T18:08:41.424Z,102775.00
2018-09-01T18:11:11.440Z,102768.00
2018-09-01T18:13:41.708Z,102771.00
2018-09-01T18:16:11.324Z,102773.00
2018-09-01T18:18:41.382Z,102770.00
2018-09-01T18:21:11.362Z,102779.00
2018-09-01T18:23:44.237Z,102778.00
2018-09-01T18:26:13.604Z,102777.00
2018-09-01T18:28:42.894Z,102779.00
2018-09-01T18:31:12.226Z,102781.00
2018-09-01T18:33:41.576Z,102781.00
2018-09-01T18:36:11.420Z,102784.00
2018-09-01T18:38:41.401Z,102792.00
2018-09-01T18:41:11.541Z,102797.00
2018-09-01T18:43:41.314Z,102796.00
2018-09-01T18:46:11.452Z,102800.00
2018-09-01T18:48:41.425Z,102799.00
2018-09-01T18:51:11.496Z,102805.00
2018-09-01T18:53:41.627Z,102814.00
2018-09-01T18:56:11.477Z,102807.00
2018-09-01T18:58:41.484Z,102813.00
2018-09-01T19:01:11.426Z,102808.00
2018-09-01T19:03:41.417Z,102817.00
2018-09-01T19:06:11.387Z,102813.00
2018-09-01T19:08:41.499Z,102812.00
2018-09-01T19:11:11.510Z,102812.00
2018-09-01T19:13:41.488Z,102814.00
2018-09-01T19:16:11.619Z,102816.00
2018-09-01T19:18:41.486Z,102815.00
2018-09-01T19:21:11.613Z,102821.00
2018-09-01T19:23:41.516Z,102822.00
2018-09-01T19:26:11.547Z,102821.00
2018-09-01T19:28:41.594Z,102819.00
2018-09-01T19:31:11.542Z,102821.00
2018-09-01T19:33:41.467Z,102821.00
2018-09-01T19:36:11.436Z,102816.00
2018-09-01T19:38:41.515Z,102820.00
2018-09-01T19:41:11.530Z,102817.00
2018-09-01T19:43:41.689Z,102819.00
2018-09-01T19:46:11.559Z,102820.00
2018-09-01T19:48:41.466Z,102821.00
2018-09-01T19:51:11.669Z,102821.00
2018-09-01T19:53:41.490Z,102821.00
2018-09-01T19:56:11.577Z,102827.00
2018-09-01T19:58:41.571Z,102818.00
2018-09-01T20:01:11.623Z,102819.00
2018-09-01T20:03:41.836Z,102815.00
2018-09-01T20:06:11.588Z,102818.00
2018-09-01T20:08:41.595Z,102818.00
2018-09-01T20:11:11.651Z,102817.00
2018-09-01T20:13:41.584Z,102813.00
2018-09-01T20:16:11.659Z,102815.00
2018-09-01T20:18:41.589Z,102818.00
2018-09-01T20:21:11.620Z,102816.00
2018-09-01T20:23:41.594Z,102818.00
2018-09-01T20:26:11.657Z,102822.00
2018-09-01T20:28:41.710Z,102823.00
2018-09-01T20:31:11.566Z,102829.00
2018-09-01T20:33:41.795Z,102827.00
2018-09-01T20:36:16.803Z,102828.00
2018-09-01T20:38:46.134Z,102827.00
2018-09-01T20:41:15.514Z,102831.00
2018-09-01T20:43:44.904Z,102830.00
2018-09-01T20:46:14.232Z,102826.00
2018-09-01T20:48:43.525Z,102827.00
2018-09-01T20:51:12.851Z,102824.00
2018-09-01T20:53:42.250Z,102827.00
2018-09-01T20:56:11.664Z,102823.00
2018-09-01T20:58:41.684Z,102830.00
2018-09-01T21:01:11.717Z,102834.00
2018-09-01T21:03:41.625Z,102827.00
2018-09-01T21:06:17.538Z,102828.00
2018-09-01T21:08:52.972Z,102831.00
2018-09-01T21:11:22.621Z,102840.00
2018-09-01T21:13:51.997Z,102840.00
2018-09-01T21:16:21.340Z,102841.00
2018-09-01T21:18:50.744Z,102842.00
2018-09-01T21:21:20.069Z,102839.00
2018-09-01T21:23:49.361Z,102840.00
2018-09-01T21:26:18.762Z,102847.00
2018-09-01T21:28:48.143Z,102853.00
2018-09-01T21:31:17.514Z,102854.00
2018-09-01T21:33:46.949Z,102860.00
2018-09-01T21:36:16.331Z,102854.00
2018-09-01T21:38:45.664Z,102859.00
2018-09-01T21:41:14.987Z,102855.00
2018-09-01T21:43:44.440Z,102864.00
2018-09-01T21:46:13.826Z,102865.00
2018-09-01T21:48:43.151Z,102864.00
2018-09-01T21:51:12.512Z,102858.00
2018-09-01T21:53:41.878Z,102858.00
2018-09-01T21:56:11.941Z,102866.00
2018-09-01T21:58:41.779Z,102857.00
2018-09-01T22:01:17.068Z,102860.00
2018-09-01T22:03:47.172Z,102869.00
2018-09-01T22:06:17.879Z,102867.00
2018-09-01T22:08:47.362Z,102866.00
2018-09-01T22:11:16.790Z,102869.00
2018-09-01T22:13:46.110Z,102869.00
2018-09-01T22:16:15.514Z,102862.00
2018-09-01T22:18:44.882Z,102871.00
2018-09-01T22:21:14.241Z,102872.00
2018-09-01T22:23:43.546Z,102874.00
2018-09-01T22:26:12.932Z,102870.00
2018-09-01T22:28:42.361Z,102874.00
2018-09-01T22:31:11.849Z,102868.00
2018-09-01T22:33:48.195Z,102871.00
2018-09-01T22:36:23.710Z,102871.00
2018-09-01T22:38:53.190Z,102875.00
2018-09-01T22:41:22.523Z,102879.00
2018-09-01T22:43:51.905Z,102877.00
2018-09-01T22:46:21.451Z,102875.00
2018-09-01T22:48:50.788Z,102876.00
2018-09-01T22:51:20.109Z,102872.00
2018-09-01T22:53:49.553Z,102875.00
2018-09-01T22:56:18.946Z,102877.00
2018-09-01T22:58:48.306Z,102877.00
2018-09-01T23:01:17.654Z,102874.00
2018-09-01T23:03:47.050Z,102877.00
2018-09-01T23:06:16.365Z,102880.00
2018-09-01T23:08:45.661Z,102878.00
2018-09-01T23:11:14.993Z,102877.00
2018-09-01T23:13:44.316Z,102878.00
2018-09-01T23:16:13.741Z,102874.00
2018-09-01T23:18:43.054Z,102879.00
2018-09-01T23:21:12.422Z,102876.00
2018-09-01T23:23:42.060Z,102876.00
2018-09-01T23:26:12.015Z,102871.00
2018-09-01T23:28:42.011Z,102872.00
2018-09-01T23:31:12.075Z,102873.00
2018-09-01T23:33:41.988Z,102866.00
2018-09-01T23:36:12.112Z,102867.00
2018-09-01T23:38:42.087Z,102866.00
2018-09-01T23:41:12.045Z,102868.00
2018-09-01T23:43:42.037Z,102863.00
2018-09-01T23:46:12.163Z,102864.00
2018-09-01T23:48:42.111Z,102864.00
2018-09-01T23:51:12.120Z,102865.00
2018-09-01T23:53:42.096Z,102869.00
2018-09-01T23:56:12.018Z,102873.00
2018-09-01T23:58:42.091Z,102878.00
